Dchai 265 — 9VDB4 — position and weather

sailwx.info

Track history (hours):
 
Tides and Currents Weather Stations Pressure Air Temp Water Temp Dewpoint Dewpoint Depression Visibility Wind Speed Wind Dir Waves Ship Positions

Dchai 265

Last reported at 2018-Feb-17 19:41 UTC. Time now 2018-Feb-23 20:20 UTC.
Position N 23°10' E 117°16'.

Length 198 m; draft 7 m.

Type: Cargo ship. MMSI: 564330498.

Date/timePositionNaut miles runAvg speedWind from/ knotsBaromVisibWave heightAir tempDewpointWater temp
2018-Feb-17 19:41N 23°10' E 117°16'317.9
2018-Feb-17 19:30N 23°12' E 117°19'917.7
2018-Feb-17 19:00N 23°17' E 117°27'917.6
2018-Feb-17 18:30N 23°22' E 117°34'917.6
2018-Feb-17 18:00N 23°29' E 117°41'917.2
2018-Feb-17 17:30N 23°34' E 117°48'817.0
2018-Feb-17 17:00N 23°40' E 117°55'816.7
2018-Feb-17 16:30N 23°46' E 118°01'816.8
2018-Feb-17 16:00N 23°51' E 118°08'916.3
2018-Feb-17 15:28N 23°57' E 118°16'816.0
2018-Feb-17 15:00N 24°02' E 118°22'816.1
2018-Feb-17 14:30N 24°07' E 118°29'816.4
2018-Feb-17 14:00N 24°12' E 118°36'816.1
2018-Feb-17 13:29N 24°18' E 118°42'451 9.8
2018-Feb-15 15:23N 31°21' E 121°39'0 1.2
2018-Feb-15 15:00N 31°21' E 121°39'4 7.9
2018-Feb-15 14:30N 31°19' E 121°43'713.7
2018-Feb-15 14:01N 31°14' E 121°48'714.7
2018-Feb-15 13:31N 31°09' E 121°54'612.8
2018-Feb-15 13:00N 31°05' E 122°00'5 9.1
2018-Feb-15 12:30N 31°04' E 122°06'5 9.5
2018-Feb-15 12:00N 31°03' E 122°11'611.1
2018-Feb-15 11:30N 31°03' E 122°17'5 9.3
2018-Feb-15 11:00N 31°02' E 122°23'3 5.5
2018-Feb-15 10:28N 31°01' E 122°26'713.5
2018-Feb-15 09:57N 30°59' E 122°34'714.6
2018-Feb-15 09:29N 30°58' E 122°42'9 0.6
2018-Feb-14 18:41N 30°60' E 122°52'2 5.3
2018-Feb-14 18:22N 31°00' E 122°54'811.2
2018-Feb-14 17:41N 30°60' E 123°03'78615.6
2018-Feb-12 15:17N 34°06' E 138°09'617.6
2018-Feb-12 14:55N 34°09' E 138°15'717.1
2018-Feb-12 14:30N 34°12' E 138°23'916.8
2018-Feb-12 13:59N 34°16' E 138°32'916.6
2018-Feb-12 13:27N 34°20' E 138°42'716.8
2018-Feb-12 13:01N 34°24' E 138°50'815.9
2018-Feb-12 12:30N 34°27' E 138°58'815.2
2018-Feb-12 12:00N 34°31' E 139°07'815.2
2018-Feb-12 11:30N 34°34' E 139°15'815.6
2018-Feb-12 11:00N 34°38' E 139°24'815.7
2018-Feb-12 10:30N 34°42' E 139°31'918.8
2018-Feb-12 10:00N 34°51' E 139°37'714.8
2018-Feb-12 09:30N 34°57' E 139°40'918.0
2018-Feb-12 09:00N 35°06' E 139°44'713.7
2018-Feb-12 08:31N 35°12' E 139°46'5 9.7
2018-Feb-12 08:00N 35°17' E 139°45'713.1
2018-Feb-12 07:31N 35°24' E 139°43'713.9
2018-Feb-12 07:01N 35°28' E 139°49'510.9
2018-Feb-12 06:30N 35°33' E 139°50'4 8.0
2018-Feb-12 06:00N 35°36' E 139°46'0 0.1
2018-Feb-12 05:30N 35°36' E 139°46'0 0.0
2018-Feb-12 04:28N 35°36' E 139°46'0 0.0
2018-Feb-12 03:58N 35°36' E 139°46'0 0.0
2018-Feb-12 03:28N 35°36' E 139°46'0 0.0
2018-Feb-12 02:22N 35°36' E 139°46'0 0.0
2018-Feb-12 01:28N 35°36' E 139°46'0 0.0
2018-Feb-12 00:58N 35°36' E 139°46'0 0.0
2018-Feb-12 00:16N 35°36' E 139°46'0 0.0
2018-Feb-11 23:58N 35°36' E 139°46'0 0.0
2018-Feb-11 23:22N 35°36' E 139°46'0 0.0
2018-Feb-11 22:46N 35°36' E 139°46'0 0.0
2018-Feb-11 22:28N 35°36' E 139°46'0 0.0
2018-Feb-11 21:52N 35°36' E 139°46'0 0.0
2018-Feb-11 21:22N 35°36' E 139°46'0 0.0
2018-Feb-11 20:58N 35°36' E 139°46'0 0.0
2018-Feb-11 20:28N 35°36' E 139°46'0 0.0
2018-Feb-11 19:52N 35°36' E 139°46'0 0.0
2018-Feb-11 19:22N 35°36' E 139°46'0 0.0
2018-Feb-11 18:52N 35°36' E 139°46'0 0.0
2018-Feb-11 18:25N 35°36' E 139°46'0 0.0
2018-Feb-11 17:58N 35°36' E 139°46'0 0.0
2018-Feb-11 17:28N 35°36' E 139°46'0 0.0
2018-Feb-11 16:58N 35°36' E 139°46'0 0.0
2018-Feb-11 16:28N 35°36' E 139°46'0 0.0
2018-Feb-11 15:46N 35°36' E 139°46'0 0.0
2018-Feb-11 15:25N 35°36' E 139°46'0 0.0
2018-Feb-11 14:49N 35°36' E 139°46'0 0.0
2018-Feb-11 14:19N 35°36' E 139°46'0 0.0
2018-Feb-11 13:58N 35°36' E 139°46'0 0.0
2018-Feb-11 13:28N 35°36' E 139°46'0 0.0
2018-Feb-11 12:55N 35°36' E 139°46'0 0.0
2018-Feb-11 12:22N 35°36' E 139°46'0 0.1
2018-Feb-11 11:58N 35°36' E 139°46'0 0.0
2018-Feb-11 11:28N 35°36' E 139°46'0 0.0
2018-Feb-11 10:55N 35°36' E 139°46'0 0.0
2018-Feb-11 10:28N 35°36' E 139°46'0 0.0
2018-Feb-11 09:58N 35°36' E 139°46'0 0.0
2018-Feb-11 09:28N 35°36' E 139°46'0 0.0
2018-Feb-11 08:58N 35°36' E 139°46'0 0.0
2018-Feb-11 08:25N 35°36' E 139°46'0 0.0
2018-Feb-11 07:52N 35°36' E 139°46'0 0.0
2018-Feb-11 06:40N 35°36' E 139°46'0 0.0
2018-Feb-11 06:16N 35°36' E 139°46'0 0.0
2018-Feb-11 05:46N 35°36' E 139°46'0 0.0
2018-Feb-11 05:16N 35°36' E 139°46'0 0.0
2018-Feb-11 04:52N 35°36' E 139°46'0 0.0
2018-Feb-11 04:25N 35°36' E 139°46'0 0.0
2018-Feb-11 03:04N 35°36' E 139°46'0 0.0
2018-Feb-11 02:49N 35°36' E 139°46'0 0.0
2018-Feb-11 00:58N 35°36' E 139°46'0 0.0
2018-Feb-10 23:34N 35°36' E 139°46'0 0.0
2018-Feb-10 22:46N 35°36' E 139°46'0 0.0
2018-Feb-10 22:28N 35°36' E 139°46'2 5.0
2018-Feb-10 22:00N 35°35' E 139°48'510.6
2018-Feb-10 21:30N 35°30' E 139°52'510.5
2018-Feb-10 21:00N 35°26' E 139°48'510.0
2018-Feb-10 20:30N 35°27' E 139°42'1 1.5
2018-Feb-10 20:01N 35°26' E 139°41'0 0.0
2018-Feb-10 19:28N 35°26' E 139°41'0 0.0
2018-Feb-10 18:58N 35°26' E 139°41'0 0.0
2018-Feb-10 18:28N 35°26' E 139°41'0 0.0
2018-Feb-10 17:58N 35°26' E 139°41'0 0.0
2018-Feb-10 17:28N 35°26' E 139°41'0 0.0
2018-Feb-10 16:58N 35°26' E 139°41'0 0.0
2018-Feb-10 16:28N 35°26' E 139°41'0 0.0
2018-Feb-10 15:58N 35°26' E 139°41'0 0.0
2018-Feb-10 15:28N 35°26' E 139°41'0 0.0
2018-Feb-10 14:58N 35°26' E 139°41'0 0.0
2018-Feb-10 14:28N 35°26' E 139°41'0 0.0
2018-Feb-10 13:58N 35°26' E 139°41'0 0.0
2018-Feb-10 13:28N 35°26' E 139°41'0 0.0
2018-Feb-10 12:58N 35°26' E 139°41'0 0.6
2018-Feb-10 12:30N 35°27' E 139°41'2 4.9
2018-Feb-10 12:00N 35°24' E 139°42'5 9.1
2018-Feb-10 11:30N 35°20' E 139°43'510.2
2018-Feb-10 11:00N 35°16' E 139°47'5 9.7
2018-Feb-10 10:30N 35°11' E 139°47'3 5.5
2018-Feb-10 10:00N 35°08' E 139°46'4 7.4
2018-Feb-10 09:30N 35°05' E 139°44'4 7.7
2018-Feb-10 09:00N 35°02' E 139°42'815.4
2018-Feb-10 08:30N 34°54' E 139°38'1017.0
2018-Feb-10 07:55N 34°45' E 139°33'816.8
2018-Feb-10 07:24N 34°39' E 139°26'818.2
2018-Feb-10 06:56N 34°36' E 139°16'1018.4
2018-Feb-10 06:25N 34°32' E 139°05'818.1
2018-Feb-10 06:00N 34°29' E 138°57'1417.4
2018-Feb-10 05:12N 34°24' E 138°42'617.7
2018-Feb-10 04:52N 34°21' E 138°35'817.3
2018-Feb-10 04:24N 34°18' E 138°26'1119.3
2018-Feb-10 03:50N 34°12' E 138°15'618.4
2018-Feb-10 03:30N 34°09' E 138°08'  
Track history (hours):
 
Tides and Currents Weather Stations Pressure Air Temp Water Temp Dewpoint Dewpoint Depression Visibility Wind Speed Wind Dir Waves Ship Positions

Dchai 265

Last reported at 2018-Feb-17 19:41 UTC. Time now 2018-Feb-23 20:20 UTC.
Position N 23°10' E 117°16'.

Length 198 m; draft 7 m.

Type: Cargo ship. MMSI: 564330498.

Date/timePositionNaut miles runAvg speedWind from/ knotsBaromVisibWave heightAir tempDewpointWater temp
2018-Feb-17 19:41N 23°10' E 117°16'317.9
2018-Feb-17 19:30N 23°12' E 117°19'917.7
2018-Feb-17 19:00N 23°17' E 117°27'917.6
2018-Feb-17 18:30N 23°22' E 117°34'917.6
2018-Feb-17 18:00N 23°29' E 117°41'917.2
2018-Feb-17 17:30N 23°34' E 117°48'817.0
2018-Feb-17 17:00N 23°40' E 117°55'816.7
2018-Feb-17 16:30N 23°46' E 118°01'816.8
2018-Feb-17 16:00N 23°51' E 118°08'916.3
2018-Feb-17 15:28N 23°57' E 118°16'816.0
2018-Feb-17 15:00N 24°02' E 118°22'816.1
2018-Feb-17 14:30N 24°07' E 118°29'816.4
2018-Feb-17 14:00N 24°12' E 118°36'816.1
2018-Feb-17 13:29N 24°18' E 118°42'451 9.8
2018-Feb-15 15:23N 31°21' E 121°39'0 1.2
2018-Feb-15 15:00N 31°21' E 121°39'4 7.9
2018-Feb-15 14:30N 31°19' E 121°43'713.7
2018-Feb-15 14:01N 31°14' E 121°48'714.7
2018-Feb-15 13:31N 31°09' E 121°54'612.8
2018-Feb-15 13:00N 31°05' E 122°00'5 9.1
2018-Feb-15 12:30N 31°04' E 122°06'5 9.5
2018-Feb-15 12:00N 31°03' E 122°11'611.1
2018-Feb-15 11:30N 31°03' E 122°17'5 9.3
2018-Feb-15 11:00N 31°02' E 122°23'3 5.5
2018-Feb-15 10:28N 31°01' E 122°26'713.5
2018-Feb-15 09:57N 30°59' E 122°34'714.6
2018-Feb-15 09:29N 30°58' E 122°42'9 0.6
2018-Feb-14 18:41N 30°60' E 122°52'2 5.3
2018-Feb-14 18:22N 31°00' E 122°54'811.2
2018-Feb-14 17:41N 30°60' E 123°03'78615.6
2018-Feb-12 15:17N 34°06' E 138°09'617.6
2018-Feb-12 14:55N 34°09' E 138°15'717.1
2018-Feb-12 14:30N 34°12' E 138°23'916.8
2018-Feb-12 13:59N 34°16' E 138°32'916.6
2018-Feb-12 13:27N 34°20' E 138°42'716.8
2018-Feb-12 13:01N 34°24' E 138°50'815.9
2018-Feb-12 12:30N 34°27' E 138°58'815.2
2018-Feb-12 12:00N 34°31' E 139°07'815.2
2018-Feb-12 11:30N 34°34' E 139°15'815.6
2018-Feb-12 11:00N 34°38' E 139°24'815.7
2018-Feb-12 10:30N 34°42' E 139°31'918.8
2018-Feb-12 10:00N 34°51' E 139°37'714.8
2018-Feb-12 09:30N 34°57' E 139°40'918.0
2018-Feb-12 09:00N 35°06' E 139°44'713.7
2018-Feb-12 08:31N 35°12' E 139°46'5 9.7
2018-Feb-12 08:00N 35°17' E 139°45'713.1
2018-Feb-12 07:31N 35°24' E 139°43'713.9
2018-Feb-12 07:01N 35°28' E 139°49'510.9
2018-Feb-12 06:30N 35°33' E 139°50'4 8.0
2018-Feb-12 06:00N 35°36' E 139°46'0 0.1
2018-Feb-12 05:30N 35°36' E 139°46'0 0.0
2018-Feb-12 04:28N 35°36' E 139°46'0 0.0
2018-Feb-12 03:58N 35°36' E 139°46'0 0.0
2018-Feb-12 03:28N 35°36' E 139°46'0 0.0
2018-Feb-12 02:22N 35°36' E 139°46'0 0.0
2018-Feb-12 01:28N 35°36' E 139°46'0 0.0
2018-Feb-12 00:58N 35°36' E 139°46'0 0.0
2018-Feb-12 00:16N 35°36' E 139°46'0 0.0
2018-Feb-11 23:58N 35°36' E 139°46'0 0.0
2018-Feb-11 23:22N 35°36' E 139°46'0 0.0
2018-Feb-11 22:46N 35°36' E 139°46'0 0.0
2018-Feb-11 22:28N 35°36' E 139°46'0 0.0
2018-Feb-11 21:52N 35°36' E 139°46'0 0.0
2018-Feb-11 21:22N 35°36' E 139°46'0 0.0
2018-Feb-11 20:58N 35°36' E 139°46'0 0.0
2018-Feb-11 20:28N 35°36' E 139°46'0 0.0
2018-Feb-11 19:52N 35°36' E 139°46'0 0.0
2018-Feb-11 19:22N 35°36' E 139°46'0 0.0
2018-Feb-11 18:52N 35°36' E 139°46'0 0.0
2018-Feb-11 18:25N 35°36' E 139°46'0 0.0
2018-Feb-11 17:58N 35°36' E 139°46'0 0.0
2018-Feb-11 17:28N 35°36' E 139°46'0 0.0
2018-Feb-11 16:58N 35°36' E 139°46'0 0.0
2018-Feb-11 16:28N 35°36' E 139°46'0 0.0
2018-Feb-11 15:46N 35°36' E 139°46'0 0.0
2018-Feb-11 15:25N 35°36' E 139°46'0 0.0
2018-Feb-11 14:49N 35°36' E 139°46'0 0.0
2018-Feb-11 14:19N 35°36' E 139°46'0 0.0
2018-Feb-11 13:58N 35°36' E 139°46'0 0.0
2018-Feb-11 13:28N 35°36' E 139°46'0 0.0
2018-Feb-11 12:55N 35°36' E 139°46'0 0.0
2018-Feb-11 12:22N 35°36' E 139°46'0 0.1
2018-Feb-11 11:58N 35°36' E 139°46'0 0.0
2018-Feb-11 11:28N 35°36' E 139°46'0 0.0
2018-Feb-11 10:55N 35°36' E 139°46'0 0.0
2018-Feb-11 10:28N 35°36' E 139°46'0 0.0
2018-Feb-11 09:58N 35°36' E 139°46'0 0.0
2018-Feb-11 09:28N 35°36' E 139°46'0 0.0
2018-Feb-11 08:58N 35°36' E 139°46'0 0.0
2018-Feb-11 08:25N 35°36' E 139°46'0 0.0
2018-Feb-11 07:52N 35°36' E 139°46'0 0.0
2018-Feb-11 06:40N 35°36' E 139°46'0 0.0
2018-Feb-11 06:16N 35°36' E 139°46'0 0.0
2018-Feb-11 05:46N 35°36' E 139°46'0 0.0
2018-Feb-11 05:16N 35°36' E 139°46'0 0.0
2018-Feb-11 04:52N 35°36' E 139°46'0 0.0
2018-Feb-11 04:25N 35°36' E 139°46'0 0.0
2018-Feb-11 03:04N 35°36' E 139°46'0 0.0
2018-Feb-11 02:49N 35°36' E 139°46'0 0.0
2018-Feb-11 00:58N 35°36' E 139°46'0 0.0
2018-Feb-10 23:34N 35°36' E 139°46'0 0.0
2018-Feb-10 22:46N 35°36' E 139°46'0 0.0
2018-Feb-10 22:28N 35°36' E 139°46'2 5.0
2018-Feb-10 22:00N 35°35' E 139°48'510.6
2018-Feb-10 21:30N 35°30' E 139°52'510.5
2018-Feb-10 21:00N 35°26' E 139°48'510.0
2018-Feb-10 20:30N 35°27' E 139°42'1 1.5
2018-Feb-10 20:01N 35°26' E 139°41'0 0.0
2018-Feb-10 19:28N 35°26' E 139°41'0 0.0
2018-Feb-10 18:58N 35°26' E 139°41'0 0.0
2018-Feb-10 18:28N 35°26' E 139°41'0 0.0
2018-Feb-10 17:58N 35°26' E 139°41'0 0.0
2018-Feb-10 17:28N 35°26' E 139°41'0 0.0
2018-Feb-10 16:58N 35°26' E 139°41'0 0.0
2018-Feb-10 16:28N 35°26' E 139°41'0 0.0
2018-Feb-10 15:58N 35°26' E 139°41'0 0.0
2018-Feb-10 15:28N 35°26' E 139°41'0 0.0
2018-Feb-10 14:58N 35°26' E 139°41'0 0.0
2018-Feb-10 14:28N 35°26' E 139°41'0 0.0
2018-Feb-10 13:58N 35°26' E 139°41'0 0.0
2018-Feb-10 13:28N 35°26' E 139°41'0 0.0
2018-Feb-10 12:58N 35°26' E 139°41'0 0.6
2018-Feb-10 12:30N 35°27' E 139°41'2 4.9
2018-Feb-10 12:00N 35°24' E 139°42'5 9.1
2018-Feb-10 11:30N 35°20' E 139°43'510.2
2018-Feb-10 11:00N 35°16' E 139°47'5 9.7
2018-Feb-10 10:30N 35°11' E 139°47'3 5.5
2018-Feb-10 10:00N 35°08' E 139°46'4 7.4
2018-Feb-10 09:30N 35°05' E 139°44'4 7.7
2018-Feb-10 09:00N 35°02' E 139°42'815.4
2018-Feb-10 08:30N 34°54' E 139°38'1017.0
2018-Feb-10 07:55N 34°45' E 139°33'816.8
2018-Feb-10 07:24N 34°39' E 139°26'818.2
2018-Feb-10 06:56N 34°36' E 139°16'1018.4
2018-Feb-10 06:25N 34°32' E 139°05'818.1
2018-Feb-10 06:00N 34°29' E 138°57'1417.4
2018-Feb-10 05:12N 34°24' E 138°42'617.7
2018-Feb-10 04:52N 34°21' E 138°35'817.3
2018-Feb-10 04:24N 34°18' E 138°26'1119.3
2018-Feb-10 03:50N 34°12' E 138°15'618.4
2018-Feb-10 03:30N 34°09' E 138°08'  

Dump ship's entire track history